Terminal Aerodrome Forecast
Issued by NWS

Home | Current Version | Previous Version | Graphics & Text | Print | Product List | Glossary On
Versions: 1 2 3 4 5 6 7 8 9 10 11 12 13 14 15 16 17 18 19 20 21 22 23
709
FTUS43 KGRB 211121
TAFCWA
TAF
KCWA 211121Z 2112/2212 18003KT 1/4SM FG BKN002
      TEMPO 2112/2114 3SM BR SCT002
     FM211400 14007KT P6SM BKN150
     FM211900 16008KT P6SM SCT050 OVC100
      TEMPO 2120/2124 3SM TSRA BKN040CB
     FM220000 10009KT 5SM -SHRA VCTS SCT035CB OVC050
     FM220400 12010KT 3SM +TSRA VCTS OVC015CB
     FM220700 11007KT 4SM -SHRA BR OVC004=

USA.gov is the U.S. government's official web portal to all federal, state and local government web resources and services.